Steinach, Austria
Current Conditions -  °F | °C
As of 4:20 AM on Friday 19 Dec 2014 (Local Time) from LOWI Reporting Station
Moderate Fog Moderate Fog  
Wind Chill: 37°   Ceiling: 200
Heat Index: 37°   Visibility: 0.25mi
Dew Point: 37°   Wind: 3mph
Humidity: 100%   Direction: 300°WNW
Pressure: 30.18"   Gusts: NA
Location:  47.08°N, 11.47°E
Report Text: LOWI 190220Z AUTO 30003KT 250V350 0400 R08/0550N R26/0550N FG FEW001 BKN002 03/03 Q1022
Loading
Personal Weather Stations






























Interactive Weather Map New forecast layout! Learn more

10-Day Weather Forecast

Advertisements
Track Severe Weather on mobile